Time;durP1;ratioP1;P1;durP2;ratioP2;P2;SDS_P1;SDS_P2;PMS_P1;PMS_P2;Temp;Humidity;BMP_temperature;BMP_pressure;BME280_temperature;BME280_humidity;BME280_pressure;Samples;Min_cycle;Max_cycle;Signal;HPM_P1;HPM_P2
2023/04/24 00:02:18;;;;;;;1.98;1.70;;;9.40;99.90;;;;;;5047526;28;20061;-43
2023/04/24 00:04:46;;;;;;;2.17;1.50;;;9.40;99.90;;;;;;5048026;28;20056;-47
2023/04/24 00:07:16;;;;;;;1.92;1.50;;;9.40;99.90;;;;;;5047047;28;20520;-46
2023/04/24 00:09:44;;;;;;;1.80;1.30;;;9.40;99.90;;;;;;5047881;28;20053;-46
2023/04/24 00:12:12;;;;;;;1.90;1.40;;;9.30;99.90;;;;;;5046129;28;20138;-47
2023/04/24 00:14:39;;;;;;;2.33;1.27;;;9.30;99.90;;;;;;5047361;28;20048;-43
2023/04/24 00:17:07;;;;;;;1.77;1.67;;;9.30;99.90;;;;;;5047572;28;20413;-46
2023/04/24 00:19:34;;;;;;;1.48;1.20;;;9.30;99.90;;;;;;5046706;28;20059;-44
2023/04/24 00:22:02;;;;;;;3.28;1.88;;;9.20;99.90;;;;;;5046970;28;20485;-44
2023/04/24 00:24:30;;;;;;;0.93;0.85;;;9.20;99.90;;;;;;5046283;28;20053;-44
2023/04/24 00:26:58;;;;;;;1.77;1.30;;;9.20;99.90;;;;;;5046580;28;20402;-44
2023/04/24 00:29:26;;;;;;;1.42;1.33;;;9.20;99.90;;;;;;5046408;28;20056;-42
2023/04/24 00:31:53;;;;;;;1.42;1.33;;;9.20;99.90;;;;;;5046183;28;20053;-50
2023/04/24 00:34:21;;;;;;;1.00;1.00;;;9.10;99.90;;;;;;5061180;28;20048;-46
2023/04/24 00:36:51;;;;;;;1.77;1.20;;;9.10;99.90;;;;;;5047563;28;20057;-48
2023/04/24 00:39:19;;;;;;;2.07;1.07;;;9.10;99.90;;;;;;5045582;28;20045;-47
2023/04/24 00:41:48;;;;;;;2.33;2.13;;;9.00;99.90;;;;;;5046876;28;20045;-49
2023/04/24 00:44:15;;;;;;;1.40;1.30;;;9.00;99.90;;;;;;5045266;28;20045;-48
2023/04/24 00:46:43;;;;;;;1.20;1.05;;;9.00;99.90;;;;;;5046451;28;20052;-45
2023/04/24 00:49:11;;;;;;;1.10;1.00;;;9.00;99.90;;;;;;5044909;28;20067;-47
2023/04/24 00:51:40;;;;;;;1.40;1.30;;;9.00;99.90;;;;;;5040265;28;20061;-44
2023/04/24 00:54:08;;;;;;;1.10;1.10;;;8.90;99.90;;;;;;5046680;28;20076;-47
2023/04/24 00:56:35;;;;;;;2.05;1.95;;;9.00;99.90;;;;;;5044793;28;20053;-48
2023/04/24 00:59:04;;;;;;;0.95;0.95;;;8.90;99.90;;;;;;5045621;28;20052;-48
2023/04/24 01:01:32;;;;;;;4.50;0.98;;;8.90;99.90;;;;;;5046705;28;20390;-45
2023/04/24 01:04:00;;;;;;;1.35;1.10;;;8.90;99.90;;;;;;5045980;28;20048;-49
2023/04/24 01:06:30;;;;;;;1.10;1.00;;;8.90;99.90;;;;;;5044871;28;20536;-48
2023/04/24 01:08:59;;;;;;;0.77;0.77;;;8.90;99.90;;;;;;5043964;28;20053;-47
2023/04/24 01:11:26;;;;;;;1.15;1.15;;;8.90;99.90;;;;;;5046039;28;20053;-46
2023/04/24 01:13:54;;;;;;;2.53;2.33;;;8.90;99.90;;;;;;5045511;28;20441;-48
2023/04/24 01:16:21;;;;;;;2.72;1.77;;;8.90;99.90;;;;;;5060518;28;20056;-46
2023/04/24 01:18:49;;;;;;;1.05;1.00;;;8.90;99.90;;;;;;5045623;28;20099;-49
2023/04/24 01:21:20;;;;;;;1.10;1.00;;;8.80;99.90;;;;;;5045840;28;20067;-48
2023/04/24 01:23:48;;;;;;;0.95;0.80;;;8.80;99.90;;;;;;5044872;28;20051;-44
2023/04/24 01:26:19;;;;;;;0.90;0.90;;;8.80;99.90;;;;;;5060825;28;20049;-47
2023/04/24 01:28:48;;;;;;;1.42;0.80;;;8.70;99.90;;;;;;5045593;28;20520;-48
2023/04/24 01:31:15;;;;;;;0.75;0.75;;;8.70;99.90;;;;;;5045345;28;20047;-45
2023/04/24 01:33:43;;;;;;;1.00;1.00;;;8.70;99.90;;;;;;5046433;28;20481;-47
2023/04/24 01:36:11;;;;;;;0.60;0.60;;;8.60;99.90;;;;;;5045146;28;20045;-47
2023/04/24 01:38:39;;;;;;;0.93;0.93;;;8.60;99.90;;;;;;5059037;28;20548;-50
2023/04/24 01:41:07;;;;;;;0.80;0.80;;;8.60;99.90;;;;;;5046336;28;20493;-44
2023/04/24 01:43:34;;;;;;;0.68;0.68;;;8.50;99.90;;;;;;5044564;28;20048;-47
2023/04/24 01:46:02;;;;;;;0.77;0.77;;;8.40;99.90;;;;;;5046092;28;20045;-49
2023/04/24 01:48:30;;;;;;;0.70;0.70;;;8.50;99.90;;;;;;5044674;28;20049;-45
2023/04/24 01:50:58;;;;;;;0.95;0.77;;;8.40;99.90;;;;;;5045110;28;20033;-49
2023/04/24 01:53:26;;;;;;;1.33;0.80;;;8.40;99.90;;;;;;5045920;28;20381;-49
2023/04/24 01:55:53;;;;;;;0.98;0.77;;;8.40;99.90;;;;;;5045108;28;20502;-46
2023/04/24 01:58:22;;;;;;;1.10;1.08;;;8.40;99.90;;;;;;5043999;28;20060;-46
2023/04/24 02:00:50;;;;;;;0.73;0.73;;;8.40;99.90;;;;;;5045705;28;20057;-46
2023/04/24 02:03:17;;;;;;;0.70;0.70;;;8.30;99.90;;;;;;5045519;28;20507;-44
2023/04/24 02:05:45;;;;;;;0.60;0.60;;;8.40;99.90;;;;;;5045767;28;20083;-44
2023/04/24 02:08:13;;;;;;;2.92;1.05;;;8.40;99.90;;;;;;5044280;28;20041;-43
2023/04/24 02:10:40;;;;;;;0.68;0.68;;;8.40;99.90;;;;;;5059733;28;20053;-48
2023/04/24 02:13:07;;;;;;;1.88;0.77;;;8.30;99.90;;;;;;5059562;28;20413;-49
2023/04/24 02:15:35;;;;;;;0.70;0.70;;;8.30;99.90;;;;;;5044782;28;20045;-45
2023/04/24 02:18:03;;;;;;;0.65;0.65;;;8.30;99.90;;;;;;5045720;28;20049;-43
2023/04/24 02:20:33;;;;;;;0.70;0.70;;;8.30;99.90;;;;;;5044314;28;20417;-47
2023/04/24 02:23:01;;;;;;;0.70;0.70;;;8.30;99.90;;;;;;5043184;28;20061;-47
2023/04/24 02:25:29;;;;;;;0.57;0.57;;;8.30;99.90;;;;;;5045557;28;20061;-42
2023/04/24 02:27:56;;;;;;;1.67;0.85;;;8.30;99.90;;;;;;5043983;28;20056;-42
2023/04/24 02:30:24;;;;;;;2.15;0.70;;;8.30;99.90;;;;;;5044287;28;20424;-42
2023/04/24 02:32:52;;;;;;;0.70;0.70;;;8.20;99.90;;;;;;5044337;28;20052;-45
2023/04/24 02:35:20;;;;;;;0.60;0.50;;;8.30;99.90;;;;;;5046382;28;20590;-49
2023/04/24 02:37:47;;;;;;;0.63;0.63;;;8.30;99.90;;;;;;5048936;28;20045;-45
2023/04/24 02:40:15;;;;;;;0.57;0.57;;;8.20;99.90;;;;;;5048926;28;20520;-46
2023/04/24 02:42:42;;;;;;;0.60;0.60;;;8.20;99.90;;;;;;5047765;28;20048;-43
2023/04/24 02:45:10;;;;;;;0.65;0.65;;;8.20;99.90;;;;;;5049008;28;20413;-44
2023/04/24 02:47:37;;;;;;;0.70;0.70;;;8.20;99.90;;;;;;5048926;28;20045;-43
2023/04/24 02:50:06;;;;;;;0.88;0.88;;;8.20;99.90;;;;;;5049119;28;20064;-44
2023/04/24 02:52:33;;;;;;;3.50;0.90;;;8.10;99.90;;;;;;5048321;28;20045;-44
2023/04/24 02:55:01;;;;;;;0.50;0.50;;;8.10;99.90;;;;;;5049027;28;20056;-46
2023/04/24 02:57:29;;;;;;;1.17;0.50;;;8.10;99.90;;;;;;5047713;28;20057;-48
2023/04/24 02:59:56;;;;;;;0.70;0.70;;;8.10;99.90;;;;;;5048116;28;20059;-43
2023/04/24 03:02:24;;;;;;;0.50;0.50;;;8.10;99.90;;;;;;5047758;28;20056;-45
2023/04/24 03:04:51;;;;;;;0.50;0.50;;;8.10;99.90;;;;;;5063594;28;20516;-43
2023/04/24 03:07:20;;;;;;;1.15;1.15;;;8.10;99.90;;;;;;5057148;28;20041;-45
2023/04/24 03:09:48;;;;;;;0.68;0.68;;;8.10;99.90;;;;;;5048621;28;20049;-48
2023/04/24 03:12:17;;;;;;;0.80;0.80;;;8.10;99.90;;;;;;5046742;28;20461;-46
2023/04/24 03:14:45;;;;;;;0.50;0.50;;;8.10;99.90;;;;;;5048551;28;20044;-47
2023/04/24 03:17:13;;;;;;;0.68;0.60;;;8.10;99.90;;;;;;5063178;28;20227;-47
2023/04/24 03:19:40;;;;;;;0.80;0.47;;;8.10;99.90;;;;;;5047509;28;20049;-44
2023/04/24 03:22:11;;;;;;;0.50;0.47;;;8.00;99.90;;;;;;5046093;28;20395;-44
2023/04/24 03:24:40;;;;;;;1.15;1.05;;;8.00;99.90;;;;;;5046952;28;20068;-45
2023/04/24 03:27:07;;;;;;;0.82;0.60;;;8.00;99.90;;;;;;5047922;28;20076;-42
2023/04/24 03:29:55;;;;;;;1.05;0.95;;;8.00;99.90;;;;;;5063103;28;20068;-45
2023/04/24 03:32:33;;;;;;;3.10;0.82;;;8.10;99.90;;;;;;5046204;28;20048;-45
2023/04/24 03:35:03;;;;;;;0.60;0.60;;;8.00;99.90;;;;;;5063062;28;20052;-48
2023/04/24 03:37:30;;;;;;;0.80;0.80;;;8.10;99.90;;;;;;5045937;28;20512;-42
2023/04/24 03:40:18;;;;;;;0.70;0.70;;;8.10;99.90;;;;;;5045834;28;20447;-42
2023/04/24 03:42:46;;;;;;;0.70;0.70;;;8.10;99.90;;;;;;5061014;28;20045;-45
2023/04/24 03:45:14;;;;;;;0.70;0.70;;;8.10;99.90;;;;;;5046106;28;20258;-43
2023/04/24 03:47:46;;;;;;;0.85;0.85;;;8.00;99.90;;;;;;5041581;28;20052;-42
2023/04/24 03:50:14;;;;;;;0.70;0.70;;;8.00;99.90;;;;;;5045754;28;20062;-43
2023/04/24 03:52:43;;;;;;;1.17;1.17;;;8.00;99.90;;;;;;5046028;28;20349;-42
2023/04/24 03:55:16;;;;;;;1.52;1.45;;;8.00;99.90;;;;;;5061868;28;20041;-43
2023/04/24 03:57:47;;;;;;;1.70;1.23;;;8.00;99.90;;;;;;5045802;28;20056;-43
2023/04/24 04:00:21;;;;;;;0.82;0.70;;;8.00;99.90;;;;;;5045042;28;20056;-43
2023/04/24 04:02:59;;;;;;;0.90;0.90;;;8.00;99.90;;;;;;5062172;28;20049;-43
2023/04/24 04:05:27;;;;;;;0.65;0.65;;;8.00;99.90;;;;;;5047127;28;20528;-43
2023/04/24 04:07:54;;;;;;;1.42;0.80;;;8.00;99.90;;;;;;5047129;28;20056;-42
2023/04/24 04:10:23;;;;;;;1.27;0.90;;;8.00;99.90;;;;;;5045304;28;20053;-42
2023/04/24 04:12:50;;;;;;;0.70;0.70;;;8.00;99.90;;;;;;5046204;28;20457;-42
2023/04/24 04:15:18;;;;;;;0.70;0.70;;;8.00;99.90;;;;;;5043028;28;20037;-43
2023/04/24 04:17:46;;;;;;;2.35;1.20;;;8.00;99.90;;;;;;5043236;28;20063;-43
2023/04/24 04:20:13;;;;;;;1.15;1.05;;;8.00;99.90;;;;;;5047006;28;20049;-42
2023/04/24 04:22:41;;;;;;;0.68;0.68;;;8.00;99.90;;;;;;5044923;28;20072;-42
2023/04/24 04:25:19;;;;;;;5.47;2.25;;;8.00;99.90;;;;;;5045757;28;20064;-44
2023/04/24 04:27:50;;;;;;;0.60;0.60;;;8.00;99.90;;;;;;5033782;28;20494;-42
2023/04/24 04:30:18;;;;;;;0.70;0.70;;;8.00;99.90;;;;;;5044357;28;20059;-44
2023/04/24 04:32:55;;;;;;;2.08;0.88;;;7.90;99.90;;;;;;5045411;28;20056;-42
2023/04/24 04:35:24;;;;;;;1.08;0.93;;;7.90;99.90;;;;;;5061485;28;20041;-43
2023/04/24 04:37:53;;;;;;;0.70;0.70;;;7.90;99.90;;;;;;5061697;28;20049;-42
2023/04/24 04:40:44;;;;;;;0.80;0.80;;;7.90;99.90;;;;;;5022239;28;20405;-43
2023/04/24 04:43:15;;;;;;;2.05;0.90;;;7.90;99.90;;;;;;5060359;28;20041;-44
2023/04/24 04:45:51;;;;;;;0.85;0.85;;;7.90;99.90;;;;;;5045091;28;20053;-43
2023/04/24 04:48:37;;;;;;;1.92;0.57;;;7.90;99.90;;;;;;5045447;28;20056;-42
2023/04/24 04:51:06;;;;;;;1.38;0.70;;;7.90;99.90;;;;;;5044344;28;20189;-43
2023/04/24 04:53:34;;;;;;;0.93;0.80;;;7.90;99.90;;;;;;5046871;28;20072;-43
2023/04/24 04:56:22;;;;;;;0.93;0.93;;;7.90;99.90;;;;;;5044650;28;20045;-43
2023/04/24 04:58:50;;;;;;;0.80;0.80;;;7.90;99.90;;;;;;5044540;28;20043;-43
2023/04/24 05:01:18;;;;;;;1.75;0.85;;;8.00;99.90;;;;;;5044710;28;20577;-43
2023/04/24 05:03:47;;;;;;;1.40;0.80;;;8.00;99.90;;;;;;5043948;28;20052;-46
2023/04/24 05:06:17;;;;;;;0.80;0.80;;;8.00;99.90;;;;;;5044271;28;20505;-44
2023/04/24 05:08:45;;;;;;;1.25;0.70;;;8.00;99.90;;;;;;5044403;28;20053;-43
2023/04/24 05:11:24;;;;;;;0.85;0.80;;;8.00;99.90;;;;;;5055493;28;20056;-43
2023/04/24 05:13:52;;;;;;;0.60;0.60;;;8.00;99.90;;;;;;5043711;28;20045;-43
2023/04/24 05:16:27;;;;;;;0.63;0.63;;;8.10;99.90;;;;;;5044273;28;20045;-44
2023/04/24 05:18:55;;;;;;;0.88;0.73;;;8.00;99.90;;;;;;5043458;28;20056;-42
2023/04/24 05:21:29;;;;;;;0.93;0.90;;;8.10;99.90;;;;;;5043715;28;20059;-42
2023/04/24 05:23:56;;;;;;;1.38;1.20;;;8.10;99.90;;;;;;5045682;28;20048;-44
2023/04/24 05:26:43;;;;;;;0.70;0.70;;;8.10;99.90;;;;;;5041270;28;20057;-43
2023/04/24 05:29:13;;;;;;;1.08;1.05;;;8.10;99.90;;;;;;5044673;28;20064;-43
2023/04/24 05:31:42;;;;;;;1.15;0.90;;;8.20;99.90;;;;;;5036661;28;20430;-42
2023/04/24 05:34:10;;;;;;;0.98;0.98;;;8.20;99.90;;;;;;5059676;28;20044;-44
2023/04/24 05:36:41;;;;;;;0.70;0.70;;;8.20;99.90;;;;;;5060953;28;20049;-42
2023/04/24 05:39:09;;;;;;;0.70;0.70;;;8.20;99.90;;;;;;5060087;28;20312;-43
2023/04/24 05:41:36;;;;;;;0.68;0.68;;;8.20;99.90;;;;;;5043935;28;20064;-43
2023/04/24 05:44:04;;;;;;;0.88;0.68;;;8.20;99.90;;;;;;5043882;28;20444;-46
2023/04/24 05:46:31;;;;;;;1.00;0.80;;;8.20;99.90;;;;;;5045409;28;20422;-44
2023/04/24 05:48:59;;;;;;;1.10;1.02;;;8.30;99.90;;;;;;5045338;28;20068;-42
2023/04/24 05:51:27;;;;;;;0.98;0.90;;;8.20;99.90;;;;;;5043046;28;20052;-45
2023/04/24 05:53:54;;;;;;;1.33;1.33;;;8.30;99.90;;;;;;5060140;28;20413;-44
2023/04/24 05:56:23;;;;;;;0.70;0.70;;;8.30;99.90;;;;;;5059712;28;20441;-42
2023/04/24 05:58:51;;;;;;;0.88;0.65;;;8.30;99.90;;;;;;5044187;28;20041;-42
2023/04/24 06:01:19;;;;;;;0.75;0.70;;;8.30;99.90;;;;;;5043911;28;20060;-42
2023/04/24 06:03:54;;;;;;;0.70;0.55;;;8.30;99.90;;;;;;5043191;28;20057;-45
2023/04/24 06:06:22;;;;;;;0.73;0.73;;;8.30;99.90;;;;;;5043546;28;20067;-43
2023/04/24 06:08:49;;;;;;;0.77;0.65;;;8.40;99.90;;;;;;5059967;28;20041;-47
2023/04/24 06:11:17;;;;;;;0.50;0.50;;;8.40;99.90;;;;;;5042953;28;20041;-44
2023/04/24 06:13:45;;;;;;;0.80;0.80;;;8.40;99.90;;;;;;5043182;28;20424;-46
2023/04/24 06:16:51;;;;;;;0.60;0.60;;;8.50;99.90;;;;;;4996839;28;20057;-44
2023/04/24 06:19:40;;;;;;;1.63;0.70;;;8.60;99.90;;;;;;4970791;28;20050;-43
2023/04/24 06:22:08;;;;;;;0.73;0.60;;;8.70;99.90;;;;;;5028901;28;20045;-43
2023/04/24 06:24:37;;;;;;;2.55;0.75;;;8.80;99.90;;;;;;5042394;28;20065;-46
2023/04/24 06:27:05;;;;;;;0.70;0.70;;;8.90;99.90;;;;;;5040783;28;20044;-44
2023/04/24 06:29:33;;;;;;;0.93;0.80;;;9.10;99.90;;;;;;5059680;28;20258;-43
2023/04/24 06:32:01;;;;;;;0.63;0.60;;;9.20;99.90;;;;;;5044692;28;20395;-43
2023/04/24 06:34:30;;;;;;;0.50;0.50;;;9.20;99.90;;;;;;5044690;28;20528;-44
2023/04/24 06:36:58;;;;;;;1.23;0.70;;;9.20;99.90;;;;;;5045563;28;20528;-44
2023/04/24 06:39:25;;;;;;;0.77;0.70;;;9.30;99.90;;;;;;5044091;28;20048;-42
2023/04/24 06:41:53;;;;;;;0.52;0.52;;;9.30;99.90;;;;;;5043871;28;20068;-43
2023/04/24 06:44:20;;;;;;;0.90;0.90;;;9.20;99.90;;;;;;5043823;28;20049;-42
2023/04/24 06:46:48;;;;;;;1.02;0.90;;;9.20;99.90;;;;;;5044371;28;20549;-46
2023/04/24 06:49:16;;;;;;;1.48;1.38;;;9.20;99.90;;;;;;5044369;28;20662;-42
2023/04/24 06:51:43;;;;;;;0.60;0.60;;;9.20;99.90;;;;;;5044041;28;20553;-45
2023/04/24 06:54:11;;;;;;;0.70;0.63;;;9.20;99.90;;;;;;5043848;28;20072;-42
2023/04/24 06:56:38;;;;;;;1.23;1.15;;;9.20;99.90;;;;;;5044695;28;20064;-42
2023/04/24 06:59:06;;;;;;;0.50;0.50;;;9.10;99.90;;;;;;5043698;28;20071;-43
2023/04/24 07:01:34;;;;;;;0.77;0.70;;;9.10;99.90;;;;;;5045354;28;20052;-42
2023/04/24 07:04:01;;;;;;;0.50;0.50;;;9.10;99.90;;;;;;5044674;28;20059;-43
2023/04/24 07:06:31;;;;;;;0.50;0.50;;;9.10;99.90;;;;;;5044353;28;20134;-42
2023/04/24 07:09:00;;;;;;;0.60;0.60;;;9.10;99.90;;;;;;5045147;28;20056;-45
2023/04/24 07:11:29;;;;;;;0.50;0.50;;;9.00;99.90;;;;;;5043166;28;20056;-43
2023/04/24 07:13:56;;;;;;;0.50;0.50;;;9.10;99.90;;;;;;5044442;28;20052;-45
2023/04/24 07:16:24;;;;;;;0.40;0.40;;;9.00;99.90;;;;;;5044691;28;20068;-43
2023/04/24 07:18:52;;;;;;;0.52;0.52;;;9.00;99.90;;;;;;5045290;28;20064;-46
2023/04/24 07:21:19;;;;;;;0.40;0.40;;;9.10;99.90;;;;;;5045179;28;20053;-45
2023/04/24 07:23:47;;;;;;;0.75;0.50;;;9.10;99.90;;;;;;5048146;28;20049;-42
2023/04/24 07:26:14;;;;;;;2.60;0.50;;;9.10;99.90;;;;;;5048153;28;20086;-41
2023/04/24 07:28:42;;;;;;;1.02;0.60;;;9.10;99.90;;;;;;5047318;28;20049;-45
2023/04/24 07:31:11;;;;;;;0.60;0.60;;;9.10;99.90;;;;;;5047762;28;20052;-44
2023/04/24 07:33:39;;;;;;;0.77;0.60;;;9.10;99.90;;;;;;5048214;28;20060;-43
2023/04/24 07:36:07;;;;;;;0.40;0.40;;;9.10;99.90;;;;;;5047534;28;20044;-43
2023/04/24 07:38:34;;;;;;;1.40;0.40;;;9.30;99.90;;;;;;5047345;28;20517;-43
2023/04/24 07:41:01;;;;;;;1.15;0.65;;;9.40;99.90;;;;;;5047826;28;20053;-42
2023/04/24 07:43:29;;;;;;;3.40;0.73;;;9.50;99.90;;;;;;5046274;28;20041;-43
2023/04/24 07:45:57;;;;;;;1.35;0.52;;;9.80;99.90;;;;;;5042544;28;20532;-43
2023/04/24 07:48:26;;;;;;;0.45;0.45;;;10.20;99.90;;;;;;5045061;28;20049;-44
2023/04/24 07:50:54;;;;;;;0.40;0.40;;;10.60;99.90;;;;;;5045115;28;20045;-41
2023/04/24 07:53:21;;;;;;;0.90;0.40;;;10.90;99.90;;;;;;5047580;28;20057;-45
2023/04/24 07:55:49;;;;;;;0.60;0.60;;;11.30;99.90;;;;;;5046538;28;20060;-43
2023/04/24 07:58:16;;;;;;;0.40;0.40;;;11.40;99.90;;;;;;5044618;28;20053;-42
2023/04/24 08:00:44;;;;;;;0.52;0.52;;;11.50;99.90;;;;;;5046821;28;20053;-44
2023/04/24 08:03:12;;;;;;;0.50;0.50;;;11.60;99.90;;;;;;5044443;28;20060;-42
2023/04/24 08:05:42;;;;;;;0.50;0.50;;;11.30;99.90;;;;;;5047601;28;20053;-43
2023/04/24 08:08:10;;;;;;;0.60;0.60;;;10.80;99.90;;;;;;5046847;28;20045;-43
2023/04/24 08:10:38;;;;;;;0.50;0.50;;;10.50;99.90;;;;;;5045257;28;20052;-41
2023/04/24 08:13:05;;;;;;;0.60;0.60;;;10.50;99.90;;;;;;5045187;28;20073;-42
2023/04/24 08:15:33;;;;;;;1.60;0.40;;;10.60;99.90;;;;;;5045796;28;20053;-43
2023/04/24 08:18:01;;;;;;;0.68;0.68;;;10.90;99.90;;;;;;5047366;28;20453;-43
2023/04/24 08:20:29;;;;;;;0.50;0.50;;;11.40;99.90;;;;;;5046999;28;20057;-42
2023/04/24 08:22:56;;;;;;;0.57;0.57;;;11.50;99.90;;;;;;5046636;28;20037;-41
2023/04/24 08:25:24;;;;;;;0.40;0.40;;;11.50;99.90;;;;;;5046963;28;20053;-44
2023/04/24 08:27:52;;;;;;;1.13;0.85;;;11.10;99.90;;;;;;5045458;28;20049;-41
2023/04/24 08:30:20;;;;;;;0.70;0.70;;;10.90;99.90;;;;;;5046865;28;20057;-43
2023/04/24 08:32:47;;;;;;;0.40;0.40;;;10.70;99.90;;;;;;5047098;28;20056;-41
2023/04/24 08:35:15;;;;;;;0.50;0.50;;;10.60;99.90;;;;;;5046540;28;20038;-40
2023/04/24 08:37:43;;;;;;;0.40;0.40;;;10.60;99.90;;;;;;5044059;28;20288;-40
2023/04/24 08:40:14;;;;;;;0.40;0.40;;;10.50;99.90;;;;;;5046460;28;20048;-43
2023/04/24 08:42:45;;;;;;;2.13;0.60;;;10.20;99.90;;;;;;5037937;28;20059;-41
2023/04/24 08:45:13;;;;;;;0.88;0.68;;;10.20;99.90;;;;;;5047524;28;20434;-48
2023/04/24 08:47:41;;;;;;;0.75;0.75;;;10.10;99.90;;;;;;5046025;28;20052;-40
2023/04/24 08:50:12;;;;;;;0.63;0.50;;;10.00;99.90;;;;;;5046596;28;20053;-40
2023/04/24 08:52:41;;;;;;;1.10;1.10;;;10.10;99.90;;;;;;5041994;28;20072;-41
2023/04/24 08:55:09;;;;;;;3.25;1.02;;;10.10;99.90;;;;;;5045710;28;20498;-40
2023/04/24 08:57:39;;;;;;;3.60;0.82;;;10.20;99.90;;;;;;5044367;28;20048;-39
2023/04/24 09:00:08;;;;;;;1.65;0.80;;;10.30;99.90;;;;;;5042499;28;20045;-40
2023/04/24 09:02:46;;;;;;;0.50;0.50;;;10.30;99.90;;;;;;5045128;28;20259;-40
2023/04/24 09:05:16;;;;;;;1.10;1.00;;;10.30;99.90;;;;;;5046159;28;20045;-42
2023/04/24 09:07:48;;;;;;;0.70;0.70;;;10.20;99.90;;;;;;5046047;28;20045;-44
2023/04/24 09:10:16;;;;;;;1.15;0.70;;;10.20;99.90;;;;;;5043287;28;20060;-42
2023/04/24 09:12:44;;;;;;;0.90;0.60;;;10.10;99.90;;;;;;5039133;28;20049;-39
2023/04/24 09:15:12;;;;;;;0.60;0.60;;;10.00;99.90;;;;;;5042802;28;20053;-41
2023/04/24 09:17:39;;;;;;;0.40;0.40;;;9.80;99.90;;;;;;5046010;28;20052;-40
2023/04/24 09:20:08;;;;;;;0.90;0.90;;;9.30;99.90;;;;;;5045640;28;20045;-48
2023/04/24 09:22:35;;;;;;;0.77;0.77;;;8.70;99.90;;;;;;5044771;28;20052;-45
2023/04/24 09:25:08;;;;;;;0.80;0.80;;;8.30;99.90;;;;;;5046114;28;20056;-43
2023/04/24 09:27:36;;;;;;;1.38;0.90;;;8.20;99.90;;;;;;5044044;28;20535;-44
2023/04/24 09:30:04;;;;;;;1.13;1.02;;;8.30;99.90;;;;;;5045974;28;20044;-49
2023/04/24 09:32:33;;;;;;;0.70;0.70;;;8.40;99.90;;;;;;5044918;28;20049;-39
2023/04/24 09:35:13;;;;;;;1.67;1.23;;;8.60;99.90;;;;;;5043906;28;20723;-47
2023/04/24 09:37:46;;;;;;;1.48;1.17;;;8.70;99.90;;;;;;5046618;28;20048;-46
2023/04/24 09:40:15;;;;;;;2.33;1.17;;;8.90;99.90;;;;;;5045412;28;20044;-45
2023/04/24 09:42:45;;;;;;;1.58;1.17;;;9.20;99.90;;;;;;5043633;28;20037;-44
2023/04/24 09:45:13;;;;;;;1.23;1.17;;;9.20;99.90;;;;;;5044804;28;20049;-49
2023/04/24 09:47:42;;;;;;;1.58;1.08;;;9.20;99.90;;;;;;5039656;28;20253;-49
2023/04/24 09:50:15;;;;;;;3.92;1.13;;;9.20;99.90;;;;;;5044050;28;20049;-47
2023/04/24 09:52:59;;;;;;;1.00;1.00;;;9.10;99.90;;;;;;5055920;28;20697;-42
2023/04/24 09:55:27;;;;;;;0.82;0.82;;;9.30;99.90;;;;;;5044850;28;20056;-45
2023/04/24 09:57:57;;;;;;;1.38;1.17;;;9.40;99.90;;;;;;5044367;28;20052;-44
2023/04/24 10:00:27;;;;;;;1.17;1.10;;;9.50;99.90;;;;;;5044834;28;20049;-43
2023/04/24 10:02:59;;;;;;;2.67;1.13;;;9.60;99.90;;;;;;5045441;28;20520;-44
2023/04/24 10:05:38;;;;;;;4.70;2.47;;;9.80;99.90;;;;;;5042178;28;20060;-42
2023/04/24 10:08:08;;;;;;;3.20;1.52;;;9.80;99.90;;;;;;5045433;28;20421;-43
2023/04/24 10:10:42;;;;;;;2.45;1.40;;;9.80;99.90;;;;;;5044745;28;20041;-43
2023/04/24 10:13:11;;;;;;;1.10;1.00;;;10.00;99.90;;;;;;5044383;28;20063;-48
2023/04/24 10:15:41;;;;;;;1.00;1.00;;;10.00;99.90;;;;;;5039914;28;20500;-40
2023/04/24 10:18:09;;;;;;;1.50;1.30;;;10.00;99.90;;;;;;5040090;28;20049;-42
2023/04/24 10:20:39;;;;;;;1.02;1.00;;;10.20;99.90;;;;;;5040772;28;20461;-45
2023/04/24 10:23:06;;;;;;;1.15;1.10;;;10.30;99.90;;;;;;5040494;28;20043;-43
2023/04/24 10:25:36;;;;;;;1.10;1.00;;;10.50;99.90;;;;;;5045859;28;20064;-39
2023/04/24 10:28:04;;;;;;;1.17;1.08;;;10.60;99.90;;;;;;5044341;28;20045;-43
2023/04/24 10:30:35;;;;;;;1.27;1.17;;;10.90;99.90;;;;;;5044619;28;20060;-45
2023/04/24 10:33:04;;;;;;;1.77;1.40;;;11.00;99.90;;;;;;5045351;28;20049;-40
2023/04/24 10:35:38;;;;;;;1.80;1.65;;;10.70;99.90;;;;;;5045105;28;20052;-41
2023/04/24 10:38:09;;;;;;;0.77;0.77;;;10.80;99.90;;;;;;5044568;28;20268;-44
2023/04/24 10:40:37;;;;;;;1.50;1.35;;;10.70;99.90;;;;;;5044321;28;20413;-47
2023/04/24 10:43:07;;;;;;;4.97;1.05;;;10.60;99.90;;;;;;5043856;28;20044;-42
2023/04/24 10:45:36;;;;;;;1.83;1.30;;;10.70;99.90;;;;;;5041229;28;20083;-42
2023/04/24 10:48:05;;;;;;;1.40;1.30;;;10.80;99.90;;;;;;5044808;28;20053;-42
2023/04/24 10:50:47;;;;;;;1.17;1.15;;;10.90;99.90;;;;;;5044670;28;20036;-41
2023/04/24 10:53:35;;;;;;;1.98;1.88;;;11.00;99.90;;;;;;5039429;28;20061;-44
2023/04/24 10:56:06;;;;;;;2.75;1.25;;;11.10;99.90;;;;;;5046179;28;20048;-36
2023/04/24 10:58:44;;;;;;;1.05;0.95;;;11.50;99.90;;;;;;5044498;28;20040;-43
2023/04/24 11:01:52;;;;;;;1.35;1.25;;;11.50;99.90;;;;;;5048801;28;20053;-38
2023/04/24 11:04:30;;;;;;;1.33;1.23;;;11.30;99.90;;;;;;5014481;28;20056;-37
2023/04/24 11:06:58;;;;;;;2.75;1.60;;;11.40;99.90;;;;;;5042464;28;20044;-37
2023/04/24 11:09:31;;;;;;;1.45;1.33;;;11.50;99.90;;;;;;5048417;28;20049;-38
2023/04/24 11:12:08;;;;;;;1.88;1.35;;;11.50;99.90;;;;;;5047562;28;20052;-39
2023/04/24 11:14:55;;;;;;;1.83;1.45;;;11.30;99.90;;;;;;5047581;28;20555;-37
2023/04/24 11:17:39;;;;;;;1.75;1.30;;;11.30;99.90;;;;;;5049034;28;20071;-37
2023/04/24 11:20:09;;;;;;;1.33;1.27;;;11.30;99.90;;;;;;5044189;28;20041;-37
2023/04/24 11:22:55;;;;;;;1.70;1.38;;;11.30;99.90;;;;;;5041670;28;20048;-37
2023/04/24 11:25:23;;;;;;;1.73;1.63;;;11.10;99.90;;;;;;5048884;28;20115;-37
2023/04/24 11:28:04;;;;;;;1.25;1.15;;;10.90;99.90;;;;;;5047024;28;20045;-36
2023/04/24 11:30:33;;;;;;;3.72;1.17;;;10.70;99.90;;;;;;5046095;28;20037;-40
2023/04/24 11:33:04;;;;;;;1.38;1.00;;;10.00;99.90;;;;;;5048567;28;20037;-47
2023/04/24 11:35:39;;;;;;;3.33;1.83;;;8.70;99.90;;;;;;5047696;28;20045;-40
2023/04/24 11:38:07;;;;;;;6.40;2.45;;;8.30;99.90;;;;;;5047660;28;20560;-37
2023/04/24 11:40:52;;;;;;;2.40;1.77;;;8.40;99.90;;;;;;5041796;28;20532;-38
2023/04/24 11:43:20;;;;;;;2.88;1.80;;;8.50;99.90;;;;;;5046464;28;20484;-39
2023/04/24 11:45:48;;;;;;;2.92;1.20;;;8.60;99.90;;;;;;5048489;28;20064;-38
2023/04/24 11:48:20;;;;;;;3.30;1.50;;;8.80;99.90;;;;;;5046081;28;20474;-41
2023/04/24 11:50:50;;;;;;;1.98;1.17;;;8.80;99.90;;;;;;5047545;28;20444;-39
2023/04/24 11:53:21;;;;;;;5.25;1.05;;;8.90;99.90;;;;;;5047971;28;20053;-38
2023/04/24 11:55:49;;;;;;;1.20;1.10;;;9.10;99.90;;;;;;5047369;28;20394;-38
2023/04/24 11:58:21;;;;;;;3.30;1.63;;;9.30;99.90;;;;;;5046913;28;20053;-42
2023/04/24 12:00:56;;;;;;;0.80;0.80;;;9.50;99.90;;;;;;5047762;28;20057;-41
2023/04/24 12:03:24;;;;;;;1.70;1.60;;;9.80;99.90;;;;;;5043378;28;20215;-39
2023/04/24 12:06:04;;;;;;;1.50;1.40;;;10.10;99.90;;;;;;5047896;28;20394;-39
2023/04/24 12:08:32;;;;;;;1.88;1.70;;;10.50;99.90;;;;;;5045963;28;20402;-39
2023/04/24 12:11:04;;;;;;;1.23;1.13;;;10.60;99.90;;;;;;5046975;28;20029;-46
2023/04/24 12:13:32;;;;;;;1.35;1.25;;;10.70;99.90;;;;;;5046275;28;20060;-42
2023/04/24 12:16:03;;;;;;;1.77;1.10;;;10.70;99.90;;;;;;5046610;28;20532;-44
2023/04/24 12:18:30;;;;;;;2.00;1.30;;;10.60;99.90;;;;;;5046950;28;20064;-41
2023/04/24 12:21:16;;;;;;;1.17;1.17;;;10.60;99.90;;;;;;5046394;28;20044;-42
2023/04/24 12:23:45;;;;;;;1.35;1.25;;;10.60;99.90;;;;;;5044524;28;20037;-46
2023/04/24 12:26:20;;;;;;;1.88;1.48;;;10.50;99.90;;;;;;5047285;28;20092;-42
2023/04/24 12:28:49;;;;;;;2.67;1.35;;;10.50;99.90;;;;;;5046211;28;20057;-51
2023/04/24 12:31:17;;;;;;;1.92;1.65;;;10.50;99.90;;;;;;5046889;28;20403;-43
2023/04/24 12:33:45;;;;;;;1.20;1.10;;;10.60;99.90;;;;;;5040162;28;20045;-45
2023/04/24 12:36:12;;;;;;;1.42;1.33;;;10.60;99.90;;;;;;5046233;28;20044;-43
2023/04/24 12:38:44;;;;;;;3.47;1.23;;;10.60;99.90;;;;;;5046424;28;20405;-42
2023/04/24 12:41:12;;;;;;;;;;;10.60;99.90;;;;;;5047546;28;20056;-52
2023/04/24 12:43:52;;;;;;;1.48;1.30;;;10.50;99.90;;;;;;5045188;28;19928;-44
2023/04/24 12:46:20;;;;;;;3.03;2.35;;;10.50;99.90;;;;;;5046322;28;20320;-41
2023/04/24 12:48:49;;;;;;;1.08;1.00;;;10.30;99.90;;;;;;5046741;28;20057;-37
2023/04/24 12:51:17;;;;;;;1.45;1.23;;;10.20;99.90;;;;;;5046145;28;20048;-37
2023/04/24 12:53:44;;;;;;;2.88;1.98;;;10.20;99.90;;;;;;5046966;28;20453;-43
2023/04/24 12:56:12;;;;;;;1.52;1.00;;;10.10;99.90;;;;;;5042085;28;20046;-40
2023/04/24 12:58:40;;;;;;;1.33;1.23;;;10.00;99.90;;;;;;5043191;28;20041;-51
2023/04/24 13:01:08;;;;;;;0.80;0.80;;;10.00;99.90;;;;;;5046692;28;20369;-37
2023/04/24 13:03:35;;;;;;;1.23;1.15;;;10.00;99.90;;;;;;5046493;28;20068;-36
2023/04/24 13:06:03;;;;;;;1.30;1.20;;;10.30;99.90;;;;;;5046196;28;20049;-36
2023/04/24 13:08:31;;;;;;;1.27;1.20;;;10.60;99.90;;;;;;5044072;28;20056;-37
2023/04/24 13:10:58;;;;;;;1.20;1.10;;;10.80;99.90;;;;;;5045742;28;20045;-37